Time;durP1;ratioP1;P1;durP2;ratioP2;P2;SDS_P1;SDS_P2;PMS_P1;PMS_P2;Temp;Humidity;BMP_temperature;BMP_pressure;BME280_temperature;BME280_humidity;BME280_pressure;Samples;Min_cycle;Max_cycle;Signal;HPM_P1;HPM_P2
2023/11/20 00:01:42;;;;;;;3.83;1.33;;;10.80;79.10;;;;;;4995728;28;20070;-73
2023/11/20 00:04:07;;;;;;;2.47;1.15;;;10.70;79.00;;;;;;4995451;28;20031;-73
2023/11/20 00:06:33;;;;;;;2.17;1.10;;;10.60;78.90;;;;;;4995712;28;20038;-73
2023/11/20 00:08:59;;;;;;;1.45;1.05;;;10.60;79.10;;;;;;4977797;28;20109;-73
2023/11/20 00:11:27;;;;;;;1.92;0.93;;;10.60;79.20;;;;;;4995636;28;20414;-72
2023/11/20 00:13:52;;;;;;;4.85;1.20;;;10.40;78.60;;;;;;4995491;28;20527;-73
2023/11/20 00:16:18;;;;;;;3.95;1.35;;;10.20;79.20;;;;;;4995789;28;20066;-73
2023/11/20 00:18:43;;;;;;;3.13;1.08;;;10.10;79.70;;;;;;4995755;28;20030;-72
2023/11/20 00:21:09;;;;;;;1.55;1.00;;;10.10;80.00;;;;;;4995652;28;20022;-73
2023/11/20 00:23:34;;;;;;;2.97;0.80;;;10.00;80.00;;;;;;4995384;28;20034;-73
2023/11/20 00:26:00;;;;;;;2.00;0.73;;;10.00;80.10;;;;;;4995304;28;20049;-72
2023/11/20 00:28:26;;;;;;;2.33;0.88;;;10.00;80.10;;;;;;4995457;28;20076;-72
2023/11/20 00:30:52;;;;;;;2.03;0.90;;;9.90;80.10;;;;;;4995163;28;20030;-72
2023/11/20 00:33:17;;;;;;;3.08;1.02;;;9.80;80.10;;;;;;4995004;28;20065;-72
2023/11/20 00:35:43;;;;;;;1.23;0.90;;;9.80;80.60;;;;;;4995279;28;20042;-73
2023/11/20 00:38:08;;;;;;;3.08;0.80;;;9.70;80.70;;;;;;4995207;28;20475;-72
2023/11/20 00:40:34;;;;;;;2.95;1.00;;;9.70;80.90;;;;;;4961511;28;20046;-73
2023/11/20 00:43:00;;;;;;;1.35;0.93;;;9.60;80.80;;;;;;4994960;28;20108;-72
2023/11/20 00:45:26;;;;;;;5.85;1.20;;;9.60;80.90;;;;;;4995235;28;20118;-73
2023/11/20 00:47:51;;;;;;;3.83;1.23;;;9.50;81.20;;;;;;4994146;28;20031;-72
2023/11/20 00:50:17;;;;;;;1.83;0.90;;;9.50;81.40;;;;;;4994775;28;20045;-73
2023/11/20 00:52:42;;;;;;;2.65;1.13;;;9.50;81.40;;;;;;4994803;28;20088;-72
2023/11/20 00:55:11;;;;;;;2.85;1.25;;;9.50;81.40;;;;;;4994410;28;20101;-73
2023/11/20 00:57:37;;;;;;;3.00;1.50;;;9.50;81.20;;;;;;4994503;28;20053;-72
2023/11/20 01:00:07;;;;;;;3.58;1.42;;;9.50;80.90;;;;;;4994615;28;20054;-73
2023/11/20 01:02:33;;;;;;;2.13;1.20;;;9.40;80.50;;;;;;4994708;28;20034;-72
2023/11/20 01:04:59;;;;;;;2.70;1.30;;;9.40;80.50;;;;;;4994497;28;20394;-72
2023/11/20 01:07:25;;;;;;;2.53;1.00;;;9.30;80.50;;;;;;4994519;28;20606;-73
2023/11/20 01:09:51;;;;;;;4.47;1.25;;;9.30;80.70;;;;;;4994728;28;20073;-73
2023/11/20 01:12:16;;;;;;;1.50;1.27;;;9.20;80.60;;;;;;4994602;28;20026;-72
2023/11/20 01:14:42;;;;;;;2.70;1.20;;;9.20;80.50;;;;;;4994587;28;20166;-72
2023/11/20 01:17:07;;;;;;;2.03;1.27;;;9.10;80.50;;;;;;4995575;28;20033;-72
2023/11/20 01:19:33;;;;;;;4.68;1.42;;;9.10;80.50;;;;;;4998205;28;20519;-72
2023/11/20 01:21:59;;;;;;;3.08;1.30;;;9.00;79.80;;;;;;4976743;28;20048;-72
2023/11/20 01:24:24;;;;;;;5.45;1.50;;;9.00;80.30;;;;;;4994223;28;20074;-73
2023/11/20 01:26:50;;;;;;;3.40;1.38;;;8.90;80.30;;;;;;4994299;28;20033;-72
2023/11/20 01:29:16;;;;;;;2.53;1.20;;;8.90;80.00;;;;;;4994305;28;20018;-73
2023/11/20 01:31:41;;;;;;;4.20;1.20;;;9.00;80.10;;;;;;4994255;28;20029;-73
2023/11/20 01:34:07;;;;;;;2.88;1.05;;;9.00;80.40;;;;;;4994068;28;20022;-73
2023/11/20 01:36:33;;;;;;;1.95;1.20;;;8.90;80.50;;;;;;4994164;28;20053;-73
2023/11/20 01:38:58;;;;;;;2.42;1.27;;;8.90;80.50;;;;;;4993934;28;20089;-73
2023/11/20 01:41:24;;;;;;;1.90;0.93;;;8.90;80.50;;;;;;4993755;28;20042;-72
2023/11/20 01:43:50;;;;;;;1.63;0.80;;;8.90;80.30;;;;;;4976381;28;20102;-73
2023/11/20 01:46:16;;;;;;;3.22;1.00;;;8.90;79.90;;;;;;4993752;28;20028;-72
2023/11/20 01:48:42;;;;;;;7.22;1.15;;;9.00;79.70;;;;;;4993870;28;20093;-73
2023/11/20 01:51:08;;;;;;;2.25;1.00;;;9.00;79.50;;;;;;4993713;28;20038;-73
2023/11/20 01:53:36;;;;;;;2.97;0.75;;;9.10;79.10;;;;;;4993853;28;20026;-73
2023/11/20 01:56:03;;;;;;;4.97;1.15;;;9.10;79.10;;;;;;4993281;28;20134;-72
2023/11/20 01:58:29;;;;;;;4.68;1.15;;;9.10;78.90;;;;;;4993851;28;20065;-73
2023/11/20 02:00:55;;;;;;;3.67;1.00;;;9.20;78.80;;;;;;4993643;28;20026;-73
2023/11/20 02:03:22;;;;;;;7.18;1.75;;;9.20;78.60;;;;;;4993528;28;20386;-73
2023/11/20 02:05:47;;;;;;;5.55;1.60;;;9.20;77.80;;;;;;4993573;28;20369;-73
2023/11/20 02:08:14;;;;;;;6.93;1.33;;;9.30;78.00;;;;;;4993666;28;20041;-73
2023/11/20 02:10:39;;;;;;;3.42;1.30;;;9.30;77.40;;;;;;4993478;28;20429;-73
2023/11/20 02:13:06;;;;;;;4.35;1.23;;;9.40;77.20;;;;;;4976175;28;20026;-73
2023/11/20 02:15:32;;;;;;;3.33;1.10;;;9.40;77.30;;;;;;4993484;28;20153;-73
2023/11/20 02:17:58;;;;;;;4.20;1.40;;;9.50;77.50;;;;;;4993438;28;20101;-74
2023/11/20 02:20:24;;;;;;;4.82;1.25;;;9.40;77.50;;;;;;4993477;28;20109;-74
2023/11/20 02:22:50;;;;;;;4.97;1.30;;;9.50;77.70;;;;;;4993501;28;20602;-73
2023/11/20 02:25:18;;;;;;;3.80;1.10;;;9.40;77.80;;;;;;4993436;28;20121;-74
2023/11/20 02:28:09;;;;;;;3.83;0.88;;;9.40;77.90;;;;;;4993434;28;20450;-74
2023/11/20 02:30:36;;;;;;;3.45;1.20;;;9.50;77.90;;;;;;4975818;28;20032;-74
2023/11/20 02:33:01;;;;;;;3.15;1.00;;;9.50;77.40;;;;;;4993416;28;20510;-73
2023/11/20 02:35:27;;;;;;;2.30;0.98;;;9.50;77.50;;;;;;4993125;28;20037;-73
2023/11/20 02:37:54;;;;;;;4.05;1.30;;;9.50;77.70;;;;;;4993380;28;20042;-74
2023/11/20 02:40:19;;;;;;;6.78;1.60;;;9.50;78.00;;;;;;4993176;28;20023;-74
2023/11/20 02:42:45;;;;;;;8.52;1.65;;;9.50;77.50;;;;;;4993177;28;20534;-73
2023/11/20 02:45:13;;;;;;;5.45;1.40;;;9.60;76.90;;;;;;4993148;28;20479;-73
2023/11/20 02:47:39;;;;;;;5.78;1.55;;;9.60;76.90;;;;;;4975825;28;20022;-73
2023/11/20 02:50:05;;;;;;;7.97;1.73;;;9.70;75.20;;;;;;4993371;28;20085;-73
2023/11/20 02:52:30;;;;;;;7.43;1.88;;;9.80;74.50;;;;;;4975676;28;20026;-73
2023/11/20 02:54:58;;;;;;;6.90;1.92;;;9.90;73.60;;;;;;4993156;28;20077;-72
2023/11/20 02:57:25;;;;;;;8.63;1.92;;;10.10;72.60;;;;;;4993589;28;20140;-76
2023/11/20 02:59:51;;;;;;;9.80;2.15;;;10.30;72.30;;;;;;4976578;28;20022;-76
2023/11/20 03:02:16;;;;;;;5.72;1.80;;;10.40;71.00;;;;;;4992980;28;20030;-76
2023/11/20 03:04:44;;;;;;;8.70;2.08;;;10.50;70.70;;;;;;4993191;28;20104;-77
2023/11/20 03:07:09;;;;;;;8.82;1.48;;;10.60;69.60;;;;;;4993134;28;20061;-76
2023/11/20 03:09:35;;;;;;;6.95;1.73;;;10.60;69.40;;;;;;4993241;28;20038;-76
2023/11/20 03:12:00;;;;;;;7.85;1.70;;;10.60;69.50;;;;;;4995042;28;20027;-76
2023/11/20 03:14:26;;;;;;;6.10;1.55;;;10.60;69.20;;;;;;4996502;28;20030;-75
2023/11/20 03:16:52;;;;;;;6.93;1.40;;;10.60;68.90;;;;;;4996754;28;20038;-75
2023/11/20 03:19:17;;;;;;;12.98;2.15;;;10.70;68.80;;;;;;4996860;28;20037;-75
2023/11/20 03:21:43;;;;;;;8.50;1.55;;;10.70;67.70;;;;;;4996709;28;20026;-75
2023/11/20 03:24:09;;;;;;;8.60;1.70;;;10.80;67.60;;;;;;4996599;28;20027;-74
2023/11/20 03:26:34;;;;;;;8.52;2.05;;;10.70;67.00;;;;;;4996528;28;20033;-75
2023/11/20 03:29:01;;;;;;;6.25;1.77;;;10.70;67.20;;;;;;4996462;28;20497;-75
2023/11/20 03:31:36;;;;;;;7.68;2.00;;;10.70;66.80;;;;;;4996422;28;20204;-75
2023/11/20 03:34:03;;;;;;;;;;;10.70;66.10;;;;;;4979379;28;20045;-75
2023/11/20 03:36:32;;;;;;;8.30;1.73;;;10.80;65.90;;;;;;4996278;28;19906;-74
2023/11/20 03:38:59;;;;;;;5.03;1.50;;;10.80;65.90;;;;;;4978789;28;20032;-74
2023/11/20 03:41:25;;;;;;;9.65;2.10;;;10.70;65.50;;;;;;4996007;28;20022;-74
2023/11/20 03:43:50;;;;;;;11.77;1.95;;;10.70;65.70;;;;;;4996100;28;20026;-75
2023/11/20 03:46:16;;;;;;;9.27;1.95;;;10.70;65.10;;;;;;4978535;28;20073;-74
2023/11/20 03:48:41;;;;;;;10.73;2.00;;;10.60;65.00;;;;;;4996197;28;20054;-75
2023/11/20 03:51:07;;;;;;;12.80;2.00;;;10.60;64.90;;;;;;4995986;28;20049;-75
2023/11/20 03:53:33;;;;;;;10.30;2.17;;;10.60;64.90;;;;;;4995753;28;20092;-74
2023/11/20 03:55:59;;;;;;;5.95;1.70;;;10.60;64.90;;;;;;4978286;28;20372;-74
2023/11/20 03:58:24;;;;;;;13.57;2.15;;;10.60;65.00;;;;;;4995895;28;20153;-74
2023/11/20 04:00:50;;;;;;;9.57;2.22;;;10.60;64.50;;;;;;4978487;28;20113;-74
2023/11/20 04:03:15;;;;;;;6.00;1.63;;;10.60;64.40;;;;;;4995681;28;20097;-75
2023/11/20 04:05:41;;;;;;;11.13;2.30;;;10.60;63.80;;;;;;4995629;28;20026;-75
2023/11/20 04:08:07;;;;;;;8.45;1.80;;;10.60;64.20;;;;;;4995701;28;20379;-75
2023/11/20 04:10:33;;;;;;;7.95;1.50;;;10.60;64.30;;;;;;4995784;28;20082;-76
2023/11/20 04:12:59;;;;;;;11.07;1.60;;;10.50;64.70;;;;;;4995840;28;20023;-75
2023/11/20 04:15:24;;;;;;;9.20;2.10;;;10.50;64.90;;;;;;4995868;28;20058;-74
2023/11/20 04:17:50;;;;;;;10.32;2.03;;;10.50;65.00;;;;;;4996095;28;20081;-74
2023/11/20 04:20:15;;;;;;;10.30;2.03;;;10.50;65.20;;;;;;4995803;28;20022;-75
2023/11/20 04:22:41;;;;;;;8.82;2.13;;;10.40;65.80;;;;;;4994335;28;20491;-74
2023/11/20 04:25:07;;;;;;;6.22;1.70;;;10.40;66.20;;;;;;4977912;28;20030;-74
2023/11/20 04:27:32;;;;;;;11.02;2.17;;;10.40;66.80;;;;;;4995287;28;20030;-74
2023/11/20 04:29:58;;;;;;;10.65;2.03;;;10.40;67.30;;;;;;4995357;28;20030;-75
2023/11/20 04:32:25;;;;;;;8.88;1.85;;;10.40;67.60;;;;;;4995296;28;20031;-74
2023/11/20 04:34:51;;;;;;;10.98;2.33;;;10.50;68.00;;;;;;4977685;28;20395;-74
2023/11/20 04:37:17;;;;;;;6.88;2.00;;;10.50;68.20;;;;;;4995324;28;20022;-74
2023/11/20 04:39:43;;;;;;;6.88;1.90;;;10.40;68.40;;;;;;4995155;28;20026;-74
2023/11/20 04:42:08;;;;;;;8.93;1.88;;;10.50;68.60;;;;;;4995031;28;20030;-74
2023/11/20 04:44:35;;;;;;;7.18;1.60;;;10.50;68.80;;;;;;4995264;28;20056;-74
2023/11/20 04:47:00;;;;;;;9.07;1.88;;;10.50;68.50;;;;;;4994868;28;20447;-73
2023/11/20 04:49:26;;;;;;;11.90;2.38;;;10.50;68.40;;;;;;4995114;28;20034;-73
2023/11/20 04:51:52;;;;;;;8.35;2.03;;;10.50;67.60;;;;;;4995035;28;20026;-73
2023/11/20 04:54:18;;;;;;;9.00;2.05;;;10.50;67.70;;;;;;4994592;28;20025;-73
2023/11/20 04:56:45;;;;;;;12.02;2.42;;;10.50;67.00;;;;;;4994629;28;20046;-73
2023/11/20 04:59:11;;;;;;;9.98;2.08;;;10.50;66.80;;;;;;4994434;28;20065;-74
2023/11/20 05:01:37;;;;;;;9.90;2.03;;;10.50;66.80;;;;;;4994656;28;20051;-74
2023/11/20 05:04:03;;;;;;;10.15;2.20;;;10.50;66.20;;;;;;4976895;28;20442;-74
2023/11/20 05:06:30;;;;;;;13.15;2.00;;;10.50;67.30;;;;;;4994493;28;20029;-74
2023/11/20 05:08:56;;;;;;;7.03;2.03;;;10.40;66.00;;;;;;4994514;28;20471;-74
2023/11/20 05:11:22;;;;;;;11.63;1.65;;;10.40;66.00;;;;;;4994343;28;20034;-74
2023/11/20 05:13:48;;;;;;;8.63;1.90;;;10.40;65.30;;;;;;4976860;28;20027;-74
2023/11/20 05:16:13;;;;;;;11.85;2.10;;;10.40;65.30;;;;;;4976853;28;20036;-73
2023/11/20 05:18:39;;;;;;;12.65;2.58;;;10.40;65.10;;;;;;4976746;28;20120;-73
2023/11/20 05:21:06;;;;;;;10.57;2.08;;;10.40;65.10;;;;;;4994031;28;20027;-74
2023/11/20 05:23:31;;;;;;;8.48;2.05;;;10.40;64.60;;;;;;4997978;28;20034;-74
2023/11/20 05:25:57;;;;;;;7.22;2.05;;;10.50;64.40;;;;;;4994362;28;20049;-74
2023/11/20 05:28:22;;;;;;;13.85;2.17;;;10.50;64.60;;;;;;5001189;28;20085;-74
2023/11/20 05:30:48;;;;;;;9.90;2.17;;;10.40;64.10;;;;;;4994361;28;20566;-74
2023/11/20 05:33:14;;;;;;;10.13;2.13;;;10.40;64.40;;;;;;4994183;28;20042;-74
2023/11/20 05:35:39;;;;;;;10.30;1.75;;;10.40;64.30;;;;;;4993674;28;20030;-74
2023/11/20 05:38:05;;;;;;;10.45;2.33;;;10.40;64.80;;;;;;4994158;28;20031;-75
2023/11/20 05:40:34;;;;;;;9.13;2.10;;;10.40;64.80;;;;;;4994073;28;20050;-74
2023/11/20 05:43:00;;;;;;;10.82;2.30;;;10.40;64.90;;;;;;4976672;28;20030;-75
2023/11/20 05:45:26;;;;;;;11.98;2.08;;;10.40;65.20;;;;;;4993994;28;20030;-76
2023/11/20 05:47:51;;;;;;;14.52;2.10;;;10.40;65.00;;;;;;4994217;28;20058;-75
2023/11/20 05:50:17;;;;;;;10.07;2.17;;;10.30;64.50;;;;;;4993962;28;20108;-76
2023/11/20 05:52:43;;;;;;;12.43;2.70;;;10.30;64.50;;;;;;4993856;28;20094;-76
2023/11/20 05:55:08;;;;;;;9.70;1.80;;;10.30;64.40;;;;;;4994004;28;20062;-75
2023/11/20 05:57:34;;;;;;;10.00;1.98;;;10.30;64.70;;;;;;4993702;28;20112;-75
2023/11/20 06:00:00;;;;;;;11.05;2.13;;;10.30;64.80;;;;;;4993844;28;20475;-78
2023/11/20 06:02:26;;;;;;;11.52;2.60;;;10.30;66.90;;;;;;4993919;28;20034;-78
2023/11/20 06:04:51;;;;;;;13.85;2.92;;;10.30;64.90;;;;;;4976430;28;20483;-77
2023/11/20 06:07:17;;;;;;;13.73;2.55;;;10.40;65.20;;;;;;4994001;28;20053;-77
2023/11/20 06:09:42;;;;;;;12.43;2.50;;;10.40;64.10;;;;;;4993847;28;20121;-79
2023/11/20 06:12:08;;;;;;;13.40;2.30;;;10.30;64.60;;;;;;4976392;28;20475;-79
2023/11/20 06:14:34;;;;;;;9.07;1.92;;;10.30;64.90;;;;;;4993550;28;20114;-78
2023/11/20 06:16:59;;;;;;;12.48;2.55;;;10.30;65.50;;;;;;4993652;28;20468;-78
2023/11/20 06:19:27;;;;;;;14.38;2.70;;;10.30;65.30;;;;;;4993670;28;20105;-82
2023/11/20 06:21:53;;;;;;;14.38;2.53;;;10.30;65.50;;;;;;4993436;28;20015;-78
2023/11/20 06:24:20;;;;;;;8.07;2.25;;;10.20;65.60;;;;;;4993439;28;20329;-76
2023/11/20 06:26:46;;;;;;;14.40;2.50;;;10.20;65.60;;;;;;4993432;28;20030;-75
2023/11/20 06:29:11;;;;;;;11.75;2.38;;;10.20;65.40;;;;;;4993375;28;20031;-74
2023/11/20 06:31:37;;;;;;;11.65;2.38;;;10.20;65.50;;;;;;4992796;28;20058;-75
2023/11/20 06:34:03;;;;;;;10.55;1.90;;;10.20;65.30;;;;;;4993062;28;20034;-74
2023/11/20 06:36:29;;;;;;;10.77;1.90;;;10.30;65.70;;;;;;4993032;28;20030;-74
2023/11/20 06:38:55;;;;;;;12.75;2.47;;;10.20;65.50;;;;;;4993165;28;20034;-74
2023/11/20 06:41:25;;;;;;;12.00;2.15;;;10.20;65.70;;;;;;4993247;28;20506;-73
2023/11/20 06:43:51;;;;;;;10.25;2.60;;;10.20;66.50;;;;;;4993049;28;20386;-74
2023/11/20 06:46:21;;;;;;;7.40;1.85;;;10.20;66.30;;;;;;4994162;28;20027;-74
2023/11/20 06:48:47;;;;;;;11.15;2.05;;;10.20;66.00;;;;;;4997104;28;20483;-74
2023/11/20 06:51:14;;;;;;;13.68;2.63;;;10.10;66.00;;;;;;4997113;28;20101;-74
2023/11/20 06:53:39;;;;;;;11.80;2.50;;;10.10;66.30;;;;;;4997069;28;20415;-74
2023/11/20 06:56:06;;;;;;;10.55;2.67;;;10.10;66.30;;;;;;4996836;28;20134;-73
2023/11/20 06:58:35;;;;;;;9.05;2.25;;;10.20;66.30;;;;;;4996908;28;20029;-73
2023/11/20 07:01:03;;;;;;;13.65;2.45;;;10.20;66.20;;;;;;4996912;28;20096;-72
2023/11/20 07:03:28;;;;;;;13.50;2.85;;;10.20;66.20;;;;;;4996894;28;20022;-74
2023/11/20 07:05:54;;;;;;;13.40;2.78;;;10.20;66.40;;;;;;4996814;28;20402;-73
2023/11/20 07:08:22;;;;;;;11.90;2.95;;;10.20;66.10;;;;;;4997076;28;20105;-74
2023/11/20 07:10:47;;;;;;;13.90;2.90;;;10.20;66.50;;;;;;4998290;28;20045;-74
2023/11/20 07:13:13;;;;;;;14.43;3.33;;;10.10;66.60;;;;;;4998086;28;20022;-74
2023/11/20 07:15:39;;;;;;;12.07;2.40;;;10.10;67.00;;;;;;4997107;28;20022;-73
2023/11/20 07:18:08;;;;;;;10.57;2.65;;;10.10;66.70;;;;;;4996666;28;20113;-73
2023/11/20 07:20:34;;;;;;;11.05;2.85;;;10.10;66.10;;;;;;4996509;28;20479;-73
2023/11/20 07:23:01;;;;;;;10.10;2.53;;;10.10;66.30;;;;;;4978839;28;20140;-73
2023/11/20 07:25:33;;;;;;;12.70;2.58;;;10.10;65.80;;;;;;4996398;28;20506;-73
2023/11/20 07:28:00;;;;;;;15.07;2.50;;;10.00;65.60;;;;;;4979038;28;20024;-75
2023/11/20 07:30:26;;;;;;;10.60;2.10;;;10.00;65.10;;;;;;4996457;28;20062;-75
2023/11/20 07:32:52;;;;;;;13.98;2.58;;;10.00;65.10;;;;;;4996172;28;20018;-73
2023/11/20 07:35:17;;;;;;;9.20;2.03;;;10.00;64.40;;;;;;4995656;28;20029;-73
2023/11/20 07:37:43;;;;;;;12.35;2.40;;;10.00;64.40;;;;;;4996246;28;20058;-73
2023/11/20 07:40:10;;;;;;;12.52;2.00;;;10.00;64.00;;;;;;4995967;28;20027;-74
2023/11/20 07:42:37;;;;;;;10.02;2.70;;;10.00;64.40;;;;;;4995582;28;20026;-74
2023/11/20 07:45:03;;;;;;;10.45;2.47;;;10.00;64.00;;;;;;4995747;28;20084;-73
2023/11/20 07:47:29;;;;;;;17.85;2.83;;;10.00;63.50;;;;;;4995964;28;20523;-74
2023/11/20 07:49:55;;;;;;;10.73;2.78;;;10.00;63.10;;;;;;4995838;28;20026;-76
2023/11/20 07:52:21;;;;;;;8.38;2.03;;;10.00;63.50;;;;;;4995572;28;20023;-74
2023/11/20 07:54:47;;;;;;;15.70;2.63;;;9.90;63.80;;;;;;4995737;28;20049;-75
2023/11/20 07:57:15;;;;;;;16.77;3.45;;;10.00;63.60;;;;;;4995467;28;20046;-76
2023/11/20 07:59:41;;;;;;;11.75;2.10;;;10.00;64.50;;;;;;4995797;28;20026;-75
2023/11/20 08:02:08;;;;;;;14.25;2.72;;;10.00;63.40;;;;;;4995616;28;20037;-74
2023/11/20 08:04:34;;;;;;;10.10;2.25;;;10.00;63.70;;;;;;4995549;28;20471;-76
2023/11/20 08:07:00;;;;;;;6.93;2.13;;;10.00;63.00;;;;;;4995687;28;20029;-76
2023/11/20 08:09:26;;;;;;;15.32;2.28;;;10.00;63.10;;;;;;4978306;28;20023;-76
2023/11/20 08:11:52;;;;;;;12.30;2.25;;;10.00;62.90;;;;;;4995240;28;20032;-75
2023/11/20 08:14:18;;;;;;;11.45;2.67;;;10.00;62.80;;;;;;4995585;28;20085;-73
2023/11/20 08:16:44;;;;;;;9.30;1.88;;;10.00;62.70;;;;;;4995496;28;20037;-76
2023/11/20 08:19:10;;;;;;;14.38;2.63;;;10.00;62.40;;;;;;4995481;28;20022;-74
2023/11/20 08:21:35;;;;;;;11.98;2.00;;;10.10;62.30;;;;;;4995303;28;20106;-74
2023/11/20 08:24:01;;;;;;;13.77;2.28;;;10.00;62.00;;;;;;4995297;28;20041;-78
2023/11/20 08:26:26;;;;;;;13.82;2.92;;;10.00;62.00;;;;;;4978843;28;20535;-74
2023/11/20 08:28:52;;;;;;;7.93;2.13;;;10.00;62.30;;;;;;4995407;28;20027;-75
2023/11/20 08:31:19;;;;;;;12.60;2.90;;;10.00;62.60;;;;;;4995161;28;20133;-75
2023/11/20 08:33:45;;;;;;;7.60;1.60;;;10.10;62.00;;;;;;4995088;28;20022;-79
2023/11/20 08:36:10;;;;;;;12.48;2.33;;;10.10;61.70;;;;;;4995451;28;20386;-76
2023/11/20 08:38:36;;;;;;;10.27;2.22;;;10.10;61.80;;;;;;4994913;28;20101;-75
2023/11/20 08:41:02;;;;;;;9.20;2.22;;;10.20;61.70;;;;;;4995039;28;20018;-76
2023/11/20 08:43:28;;;;;;;15.70;3.15;;;10.20;61.70;;;;;;4994631;28;20026;-75
2023/11/20 08:45:54;;;;;;;10.07;2.53;;;10.10;61.90;;;;;;4995063;28;20245;-76
2023/11/20 08:48:19;;;;;;;12.15;2.35;;;10.20;61.60;;;;;;4977301;28;20061;-77
2023/11/20 08:50:45;;;;;;;9.77;2.45;;;10.20;61.80;;;;;;4994692;28;20025;-76
2023/11/20 08:53:11;;;;;;;13.20;2.17;;;10.30;61.60;;;;;;4994785;28;20019;-76
2023/11/20 08:55:36;;;;;;;10.98;2.10;;;10.30;62.10;;;;;;4994555;28;20018;-75
2023/11/20 08:58:05;;;;;;;9.45;1.80;;;10.20;62.20;;;;;;4977251;28;20501;-78
2023/11/20 09:00:31;;;;;;;8.70;2.45;;;10.20;62.70;;;;;;4994686;28;20030;-76
2023/11/20 09:02:57;;;;;;;11.82;2.17;;;10.20;63.00;;;;;;4994610;28;20440;-76
2023/11/20 09:05:22;;;;;;;11.73;2.55;;;10.30;62.60;;;;;;4976950;28;20104;-76
2023/11/20 09:07:48;;;;;;;10.80;2.38;;;10.30;62.60;;;;;;4994487;28;20018;-77
2023/11/20 09:10:13;;;;;;;12.18;2.67;;;10.30;62.10;;;;;;4976502;28;20515;-78
2023/11/20 09:12:41;;;;;;;13.38;2.00;;;10.30;62.70;;;;;;4994473;28;20069;-75
2023/11/20 09:15:08;;;;;;;12.13;2.28;;;10.20;62.20;;;;;;4994397;28;20121;-76
2023/11/20 09:17:36;;;;;;;10.43;2.20;;;10.20;62.00;;;;;;4994328;28;20471;-75
2023/11/20 09:20:01;;;;;;;12.40;3.00;;;10.30;62.00;;;;;;4994310;28;20030;-76
2023/11/20 09:22:27;;;;;;;12.32;2.10;;;10.40;62.40;;;;;;4994414;28;20487;-77
2023/11/20 09:24:53;;;;;;;11.90;2.10;;;10.50;61.10;;;;;;4994277;28;20038;-77
2023/11/20 09:27:20;;;;;;;11.65;2.30;;;10.70;60.50;;;;;;4993972;28;20386;-75
2023/11/20 09:29:45;;;;;;;10.65;2.42;;;11.00;59.30;;;;;;4994242;28;20037;-77
2023/11/20 09:32:11;;;;;;;8.60;1.85;;;11.00;59.70;;;;;;4994097;28;20026;-77
2023/11/20 09:34:38;;;;;;;8.07;2.13;;;11.00;59.20;;;;;;4994165;28;20031;-75
2023/11/20 09:37:04;;;;;;;8.55;2.33;;;10.90;59.20;;;;;;4994301;28;20080;-76
2023/11/20 09:39:29;;;;;;;10.77;2.38;;;10.90;59.40;;;;;;4976438;28;20109;-78
2023/11/20 09:41:55;;;;;;;13.63;2.95;;;11.00;59.70;;;;;;4993818;28;20029;-76
2023/11/20 09:44:26;;;;;;;11.95;2.03;;;11.00;59.20;;;;;;4993871;28;20034;-76
2023/11/20 09:46:53;;;;;;;10.38;2.30;;;11.20;58.60;;;;;;5000750;28;20023;-77
2023/11/20 09:49:25;;;;;;;10.45;2.00;;;11.30;57.60;;;;;;4994000;28;20062;-77
2023/11/20 09:51:55;;;;;;;11.98;2.33;;;11.20;58.20;;;;;;4976461;28;20495;-77
2023/11/20 09:54:21;;;;;;;12.07;2.38;;;11.20;58.50;;;;;;4994282;28;20026;-75
2023/11/20 09:56:47;;;;;;;11.25;2.30;;;11.20;58.00;;;;;;4993528;28;20058;-80
2023/11/20 09:59:13;;;;;;;7.00;1.70;;;11.10;58.40;;;;;;4995559;28;20025;-76
2023/11/20 10:01:42;;;;;;;12.10;2.00;;;11.10;58.40;;;;;;4979545;28;20030;-77
2023/11/20 10:04:11;;;;;;;13.85;3.13;;;11.10;58.40;;;;;;5001341;28;20438;-76
2023/11/20 10:06:39;;;;;;;7.57;1.95;;;11.20;57.80;;;;;;4998534;28;20505;-76
2023/11/20 10:09:05;;;;;;;13.25;2.30;;;11.10;58.00;;;;;;4994310;28;20174;-76
2023/11/20 10:11:33;;;;;;;9.13;2.63;;;11.10;57.70;;;;;;4993779;28;20023;-76
2023/11/20 10:13:58;;;;;;;10.95;2.45;;;11.00;58.10;;;;;;4993465;28;20056;-76
2023/11/20 10:16:26;;;;;;;17.50;3.05;;;11.10;58.20;;;;;;4993059;28;20062;-78
2023/11/20 10:18:52;;;;;;;11.27;2.10;;;11.30;58.00;;;;;;4993472;28;20026;-77
2023/11/20 10:21:20;;;;;;;8.23;1.92;;;11.30;56.90;;;;;;4992687;28;20026;-79
2023/11/20 10:23:52;;;;;;;10.82;1.75;;;11.20;57.50;;;;;;4994108;28;20041;-84
2023/11/20 10:26:17;;;;;;;9.30;1.77;;;11.20;57.60;;;;;;4994372;28;20153;-82
2023/11/20 10:28:45;;;;;;;9.32;1.70;;;11.10;57.90;;;;;;4993871;28;20447;-79
2023/11/20 10:31:10;;;;;;;8.05;2.53;;;11.30;57.60;;;;;;4976235;28;20451;-79
2023/11/20 10:33:36;;;;;;;10.68;2.35;;;11.30;57.90;;;;;;4992966;28;20030;-80
2023/11/20 10:36:12;;;;;;;8.15;2.28;;;11.20;56.90;;;;;;4993261;28;20383;-81
2023/11/20 10:38:38;;;;;;;11.25;2.50;;;11.20;57.30;;;;;;4993442;28;20031;-81
2023/11/20 10:41:08;;;;;;;10.55;2.42;;;11.20;57.40;;;;;;4976093;28;20593;-81
2023/11/20 10:43:36;;;;;;;9.73;2.15;;;11.70;56.90;;;;;;4975757;28;20468;-81
2023/11/20 10:46:01;;;;;;;10.15;2.15;;;12.00;56.20;;;;;;4993278;28;20028;-82
2023/11/20 10:48:34;;;;;;;7.32;2.15;;;12.60;53.20;;;;;;4993325;28;20369;-80
2023/11/20 10:51:08;;;;;;;12.82;3.10;;;12.40;53.80;;;;;;4975597;28;20430;-82
2023/11/20 10:53:38;;;;;;;9.50;1.80;;;12.10;54.10;;;;;;4993322;28;20102;-82
2023/11/20 10:56:12;;;;;;;7.45;1.90;;;12.00;55.40;;;;;;4975042;28;20081;-80
2023/11/20 10:58:39;;;;;;;7.65;1.50;;;12.00;55.00;;;;;;4992951;28;20019;-78
2023/11/20 11:01:05;;;;;;;7.03;1.80;;;12.00;54.80;;;;;;4992518;28;20159;-81
2023/11/20 11:03:32;;;;;;;10.55;1.90;;;12.20;54.20;;;;;;4994797;28;20125;-79
2023/11/20 11:06:03;;;;;;;11.30;2.08;;;12.30;53.60;;;;;;4993179;28;20034;-80
2023/11/20 11:08:32;;;;;;;7.25;1.83;;;12.00;54.80;;;;;;4993074;28;20113;-80
2023/11/20 11:10:59;;;;;;;7.35;1.90;;;11.80;55.60;;;;;;4993058;28;20027;-80
2023/11/20 11:13:32;;;;;;;8.65;1.80;;;11.60;56.30;;;;;;4975720;28;20118;-80
2023/11/20 11:15:59;;;;;;;7.32;1.65;;;11.50;56.60;;;;;;4976041;28;20554;-80
2023/11/20 11:18:28;;;;;;;4.53;1.25;;;11.30;56.60;;;;;;4993282;28;20076;-79
2023/11/20 11:20:56;;;;;;;7.22;1.95;;;11.30;57.60;;;;;;4992994;28;20065;-87
2023/11/20 11:23:32;;;;;;;8.68;1.63;;;11.40;57.30;;;;;;4976208;28;20070;-81
2023/11/20 11:26:10;;;;;;;4.35;1.40;;;11.60;57.20;;;;;;4993376;28;20062;-79
2023/11/20 11:28:43;;;;;;;7.13;1.58;;;11.80;56.60;;;;;;4975549;28;20023;-81
2023/11/20 11:31:09;;;;;;;7.85;1.90;;;11.90;56.30;;;;;;4992955;28;20027;-79
2023/11/20 11:34:00;;;;;;;4.18;1.15;;;11.80;55.80;;;;;;4995822;28;20019;-81
2023/11/20 11:36:31;;;;;;;5.95;1.48;;;11.50;56.70;;;;;;4997213;28;20023;-81
2023/11/20 11:39:13;;;;;;;5.95;1.55;;;11.50;57.30;;;;;;4998400;28;20105;-83
2023/11/20 11:41:53;;;;;;;4.72;1.67;;;11.60;57.00;;;;;;4996513;28;20026;-81
2023/11/20 11:44:45;;;;;;;6.57;1.65;;;11.80;56.30;;;;;;4997782;28;20099;-81
2023/11/20 11:47:14;;;;;;;7.07;1.25;;;12.00;55.30;;;;;;4997084;28;20026;-84
2023/11/20 11:49:50;;;;;;;6.55;1.42;;;13.00;51.60;;;;;;4979441;28;20027;-81
2023/11/20 11:52:26;;;;;;;3.40;1.08;;;14.10;48.50;;;;;;4996611;28;20109;-79
2023/11/20 11:55:21;;;;;;;5.00;1.15;;;15.20;45.40;;;;;;4996777;28;20031;-77
2023/11/20 11:58:02;;;;;;;3.83;1.20;;;15.90;42.60;;;;;;4996433;28;20403;-77
2023/11/20 12:00:28;;;;;;;2.00;0.93;;;16.20;41.50;;;;;;4977580;28;20041;-80
2023/11/20 12:02:57;;;;;;;5.15;1.02;;;17.00;39.40;;;;;;4996059;28;20037;-79
2023/11/20 12:05:24;;;;;;;4.63;0.90;;;17.90;37.10;;;;;;4995250;28;20041;-76
2023/11/20 12:07:53;;;;;;;4.25;1.10;;;18.50;35.90;;;;;;4995450;28;20030;-77
2023/11/20 12:10:39;;;;;;;4.07;0.80;;;19.30;34.00;;;;;;4995670;28;20105;-78
2023/11/20 12:13:10;;;;;;;2.40;0.75;;;19.40;33.00;;;;;;4978043;28;20391;-76
2023/11/20 12:15:37;;;;;;;2.63;0.90;;;19.40;33.00;;;;;;4995267;28;20098;-76
2023/11/20 12:18:06;;;;;;;3.42;1.10;;;19.30;33.40;;;;;;4995308;28;20126;-77
2023/11/20 12:20:42;;;;;;;5.05;0.90;;;19.20;33.80;;;;;;4995138;28;20029;-78
2023/11/20 12:23:23;;;;;;;5.00;1.08;;;19.90;32.00;;;;;;4994942;28;20475;-78
2023/11/20 12:25:53;;;;;;;4.00;1.15;;;19.40;32.60;;;;;;4977616;28;20034;-77
2023/11/20 12:28:20;;;;;;;6.30;1.08;;;18.80;33.30;;;;;;4977629;28;20018;-77
2023/11/20 12:30:46;;;;;;;3.65;1.13;;;17.50;35.10;;;;;;4995010;28;20026;-78
2023/11/20 12:33:12;;;;;;;4.40;1.40;;;16.30;38.30;;;;;;4994651;28;20023;-77
2023/11/20 12:35:39;;;;;;;5.63;0.90;;;15.20;41.30;;;;;;4994495;28;20360;-78
2023/11/20 12:38:06;;;;;;;3.55;1.35;;;14.80;43.60;;;;;;4994935;28;20030;-78
2023/11/20 12:40:32;;;;;;;4.43;1.45;;;15.20;41.80;;;;;;4977357;28;20022;-76
2023/11/20 12:42:58;;;;;;;9.02;1.40;;;14.60;42.50;;;;;;4977790;28;20052;-75
2023/11/20 12:45:24;;;;;;;6.93;1.70;;;13.80;45.20;;;;;;4993837;28;20030;-78